Time;durP1;ratioP1;P1;durP2;ratioP2;P2;SDS_P1;SDS_P2;PMS_P1;PMS_P2;Temp;Humidity;BMP_temperature;BMP_pressure;BME280_temperature;BME280_humidity;BME280_pressure;Samples;Min_cycle;Max_cycle;Signal;HPM_P1;HPM_P2
2021/08/15 00:01:48;;;;;;;13.13;7.55;;;;;;;16.87;65.09;100589.75;1727071;82;21028;-73
2021/08/15 00:04:14;;;;;;;10.43;7.70;;;;;;;16.84;65.23;100587.41;1745434;81;21013;-73
2021/08/15 00:06:41;;;;;;;10.88;7.78;;;;;;;16.81;65.37;100595.73;1734833;82;21822;-73
2021/08/15 00:09:07;;;;;;;10.18;7.33;;;;;;;16.77;65.53;100592.52;1735818;82;20936;-73
2021/08/15 00:11:35;;;;;;;12.50;7.87;;;;;;;16.75;65.62;100595.02;1727175;82;21076;-73
2021/08/15 00:14:01;;;;;;;10.78;7.85;;;;;;;16.73;65.59;100595.17;1709460;82;21025;-73
2021/08/15 00:16:32;;;;;;;13.60;7.60;;;;;;;16.74;65.50;100598.67;1738394;82;20984;-73
2021/08/15 00:19:04;;;;;;;11.40;7.50;;;;;;;16.72;65.48;100594.00;1739281;82;22851;-74
2021/08/15 00:21:27;;;;;;;14.78;8.33;;;;;;;16.71;65.54;100593.16;1738858;82;20993;-73
2021/08/15 00:23:54;;;;;;;10.23;7.47;;;;;;;16.72;65.57;100596.67;1738601;82;21457;-72
2021/08/15 00:26:20;;;;;;;13.48;7.67;;;;;;;16.71;65.61;100589.16;1736430;82;21461;-73
2021/08/15 00:28:49;;;;;;;9.60;7.65;;;;;;;16.70;65.80;100582.16;1739128;82;20957;-72
2021/08/15 00:31:16;;;;;;;10.28;7.65;;;;;;;16.67;65.89;100588.25;1739144;82;21742;-73
2021/08/15 00:33:43;;;;;;;13.48;7.83;;;;;;;16.64;66.00;100577.91;1719430;82;21079;-73
2021/08/15 00:36:09;;;;;;;10.90;7.70;;;;;;;16.61;66.07;100585.73;1713423;82;20997;-73
2021/08/15 00:38:36;;;;;;;11.15;8.08;;;;;;;16.58;66.12;100578.02;1742990;82;21179;-72
2021/08/15 00:41:02;;;;;;;10.55;8.03;;;;;;;16.56;66.08;100581.34;1740231;82;21068;-72
2021/08/15 00:43:31;;;;;;;12.53;7.95;;;;;;;16.54;66.06;100576.17;1738829;82;22838;-72
2021/08/15 00:45:59;;;;;;;9.93;7.72;;;;;;;16.51;66.07;100577.82;1739358;82;20958;-73
2021/08/15 00:48:25;;;;;;;10.15;7.80;;;;;;;16.48;66.25;100580.77;1713893;82;20969;-73
2021/08/15 00:50:51;;;;;;;11.55;7.97;;;;;;;16.44;66.41;100570.09;1693964;82;21049;-72
2021/08/15 00:53:18;;;;;;;11.30;7.87;;;;;;;16.41;66.52;100565.58;1691459;84;20966;-72
2021/08/15 00:55:47;;;;;;;12.05;7.78;;;;;;;16.41;66.54;100569.58;1701511;84;21145;-73
2021/08/15 00:58:15;;;;;;;11.10;8.15;;;;;;;16.38;66.49;100566.70;1670568;84;21021;-73
2021/08/15 01:00:41;;;;;;;11.22;7.15;;;;;;;16.38;66.40;100569.86;1702915;83;21056;-72
2021/08/15 01:03:08;;;;;;;12.10;8.03;;;;;;;16.33;66.56;100562.34;1698746;83;21052;-73
2021/08/15 01:05:34;;;;;;;11.73;7.35;;;;;;;16.30;66.72;100567.47;1692186;84;21127;-73
2021/08/15 01:08:01;;;;;;;12.65;7.70;;;;;;;16.29;66.81;100566.29;1698434;83;22234;-73
2021/08/15 01:10:29;;;;;;;14.40;8.35;;;;;;;16.27;66.85;100561.62;1694260;83;20960;-72
2021/08/15 01:12:55;;;;;;;12.88;8.38;;;;;;;16.25;66.94;100564.94;1699029;83;21009;-73
2021/08/15 01:15:22;;;;;;;11.50;8.40;;;;;;;16.21;66.93;100563.09;1691539;83;21139;-73
2021/08/15 01:17:50;;;;;;;12.40;8.35;;;;;;;16.17;67.00;100564.86;1683563;84;20944;-73
2021/08/15 01:20:18;;;;;;;10.63;8.05;;;;;;;16.13;67.13;100565.67;1701653;84;20969;-73
2021/08/15 01:22:47;;;;;;;15.83;8.48;;;;;;;16.11;67.25;100564.12;1700967;83;21457;-73
2021/08/15 01:25:14;;;;;;;13.58;8.68;;;;;;;16.08;67.37;100565.78;1699675;84;21427;-73
2021/08/15 01:27:46;;;;;;;14.68;9.38;;;;;;;16.07;67.36;100562.77;1699429;83;20975;-73
2021/08/15 01:30:15;;;;;;;15.50;8.88;;;;;;;16.07;67.41;100562.77;1694216;84;21048;-73
2021/08/15 01:32:43;;;;;;;13.60;9.45;;;;;;;16.05;67.45;100563.42;1675165;85;22190;-73
2021/08/15 01:35:10;;;;;;;13.00;10.18;;;;;;;16.01;67.54;100562.37;1686147;84;20998;-73
2021/08/15 01:37:37;;;;;;;13.62;9.48;;;;;;;16.00;67.54;100558.54;1682875;84;21011;-73
2021/08/15 01:40:07;;;;;;;13.72;8.58;;;;;;;15.98;67.56;100558.70;1702643;83;21013;-73
2021/08/15 01:42:33;;;;;;;14.63;8.90;;;;;;;15.96;67.53;100553.19;1702047;83;21001;-73
2021/08/15 01:45:09;;;;;;;13.83;9.08;;;;;;;15.94;67.56;100559.17;1699879;84;21044;-73
2021/08/15 01:47:35;;;;;;;13.35;8.95;;;;;;;15.92;67.60;100558.45;1678920;84;21009;-73
2021/08/15 01:50:05;;;;;;;11.88;8.98;;;;;;;15.88;67.65;100555.27;1713656;81;21423;-73
2021/08/15 01:52:32;;;;;;;16.35;8.45;;;;;;;15.86;67.73;100551.09;1722341;82;21623;-73
2021/08/15 01:55:00;;;;;;;19.42;8.95;;;;;;;15.85;67.69;100554.75;1709705;83;21012;-73
2021/08/15 01:57:27;;;;;;;13.05;9.58;;;;;;;15.84;67.72;100551.75;1637074;84;21835;-73
2021/08/15 01:59:53;;;;;;;13.53;9.18;;;;;;;15.82;67.79;100557.69;1657632;84;21006;-73
2021/08/15 02:02:20;;;;;;;15.93;10.40;;;;;;;15.79;67.78;100554.84;1694881;83;20992;-73
2021/08/15 02:04:47;;;;;;;15.68;10.48;;;;;;;15.78;67.77;100555.84;1698774;83;21101;-73
2021/08/15 02:07:13;;;;;;;18.20;11.75;;;;;;;15.74;67.80;100556.64;1707943;82;21008;-73
2021/08/15 02:09:39;;;;;;;17.30;11.43;;;;;;;15.71;67.82;100560.08;1705046;83;21814;-73
2021/08/15 02:12:08;;;;;;;19.45;11.65;;;;;;;15.67;67.89;100562.22;1708214;83;20945;-73
2021/08/15 02:14:34;;;;;;;15.98;11.43;;;;;;;15.65;67.95;100562.03;1708859;83;21051;-73
2021/08/15 02:17:03;;;;;;;18.48;11.43;;;;;;;15.63;67.97;100560.86;1709428;82;21040;-73
2021/08/15 02:19:30;;;;;;;16.12;9.65;;;;;;;15.60;68.08;100556.27;1674940;84;20987;-73
2021/08/15 02:21:57;;;;;;;19.10;10.50;;;;;;;15.58;68.13;100556.92;1706363;82;21834;-73
2021/08/15 02:24:24;;;;;;;16.32;10.08;;;;;;;15.55;68.25;100562.55;1707150;83;21000;-73
2021/08/15 02:26:51;;;;;;;13.48;9.68;;;;;;;15.53;68.26;100557.84;1672350;85;21030;-73
2021/08/15 02:29:17;;;;;;;15.70;9.63;;;;;;;15.50;68.28;100561.66;1707636;82;20980;-73
2021/08/15 02:31:43;;;;;;;13.43;9.15;;;;;;;15.48;68.29;100561.47;1705087;84;21016;-73
2021/08/15 02:34:11;;;;;;;16.93;9.43;;;;;;;15.45;68.31;100562.61;1705957;83;22238;-73
2021/08/15 02:36:38;;;;;;;15.43;10.03;;;;;;;15.41;68.41;100563.38;1709347;83;21080;-73
2021/08/15 02:39:04;;;;;;;15.90;10.20;;;;;;;15.38;68.47;100563.69;1709465;82;21071;-73
2021/08/15 02:41:31;;;;;;;14.38;9.78;;;;;;;15.34;68.46;100566.28;1709578;82;20972;-73
2021/08/15 02:43:57;;;;;;;16.05;9.90;;;;;;;15.33;68.45;100565.94;1707102;83;20981;-73
2021/08/15 02:46:23;;;;;;;20.37;9.75;;;;;;;15.30;68.48;100566.24;1708220;83;22191;-73
2021/08/15 02:48:51;;;;;;;16.45;10.80;;;;;;;15.29;68.53;100567.23;1709552;82;21032;-73
2021/08/15 02:51:18;;;;;;;17.37;11.22;;;;;;;15.27;68.58;100567.04;1725776;81;21080;-73
2021/08/15 02:53:44;;;;;;;19.07;11.20;;;;;;;15.28;68.62;100566.05;1732122;82;20992;-73
2021/08/15 02:56:10;;;;;;;14.98;10.90;;;;;;;15.30;68.71;100566.24;1734465;82;21001;-73
2021/08/15 02:58:37;;;;;;;20.15;11.10;;;;;;;15.31;68.72;100565.25;1738042;82;22271;-73
2021/08/15 03:01:04;;;;;;;23.70;12.98;;;;;;;15.31;68.78;100561.75;1723058;82;21495;-73
2021/08/15 03:03:30;;;;;;;19.77;13.55;;;;;;;15.30;68.79;100563.58;1722927;82;20958;-72
2021/08/15 03:05:56;;;;;;;19.62;13.20;;;;;;;15.30;68.79;100565.41;1735326;81;20957;-72
2021/08/15 03:08:23;;;;;;;18.10;13.32;;;;;;;15.31;68.79;100568.41;1735631;82;21005;-72
2021/08/15 03:10:51;;;;;;;17.92;13.10;;;;;;;15.28;68.84;100559.40;1732586;82;20996;-72
2021/08/15 03:13:19;;;;;;;20.82;14.13;;;;;;;15.28;68.90;100557.58;1734095;82;21374;-72
2021/08/15 03:15:47;;;;;;;22.15;14.83;;;;;;;15.29;68.96;100557.92;1736095;82;21401;-72
2021/08/15 03:18:18;;;;;;;24.80;15.75;;;;;;;15.31;69.01;100557.27;1726765;82;21062;-72
2021/08/15 03:20:45;;;;;;;21.82;14.53;;;;;;;15.31;68.98;100558.60;1728323;82;21544;-72
2021/08/15 03:23:12;;;;;;;23.47;14.98;;;;;;;15.31;69.15;100555.10;1727273;82;22651;-72
2021/08/15 03:25:38;;;;;;;25.45;15.95;;;;;;;15.32;69.24;100552.29;1730184;82;21409;-72
2021/08/15 03:28:05;;;;;;;23.62;16.10;;;;;;;15.33;69.21;100552.63;1718154;82;21406;-72
2021/08/15 03:30:32;;;;;;;20.12;15.15;;;;;;;15.36;69.27;100555.52;1724602;82;21068;-72
2021/08/15 03:32:59;;;;;;;22.15;15.35;;;;;;;15.40;69.19;100555.55;1726277;82;20966;-72
2021/08/15 03:35:25;;;;;;;22.50;15.85;;;;;;;15.44;69.18;100555.58;1712453;82;21821;-72
2021/08/15 03:37:52;;;;;;;22.75;16.10;;;;;;;15.48;69.18;100554.31;1738753;82;21039;-72
2021/08/15 03:40:19;;;;;;;26.00;17.32;;;;;;;15.52;69.21;100558.34;1734385;82;20965;-72
2021/08/15 03:42:45;;;;;;;26.00;17.05;;;;;;;15.57;69.21;100553.92;1726714;82;21051;-72
2021/08/15 03:45:14;;;;;;;26.05;16.23;;;;;;;15.63;69.15;100552.00;1727938;82;21014;-72
2021/08/15 03:47:41;;;;;;;21.35;15.70;;;;;;;15.70;69.08;100554.41;1713092;82;22203;-72
2021/08/15 03:50:08;;;;;;;20.95;15.70;;;;;;;15.75;69.17;100549.49;1727629;82;20945;-72
2021/08/15 03:52:41;;;;;;;24.72;15.63;;;;;;;15.82;69.18;100543.88;1735521;81;21012;-72
2021/08/15 03:55:13;;;;;;;20.37;15.80;;;;;;;15.89;69.18;100542.78;1737187;82;20954;-72
2021/08/15 03:57:40;;;;;;;24.35;15.68;;;;;;;15.95;69.15;100543.03;1734425;82;21005;-72
2021/08/15 04:00:08;;;;;;;21.50;15.23;;;;;;;16.02;69.06;100541.93;1730768;82;21784;-72
2021/08/15 04:02:34;;;;;;;24.52;16.35;;;;;;;16.08;69.02;100542.63;1723728;82;21065;-72
2021/08/15 04:05:01;;;;;;;22.00;14.90;;;;;;;16.14;68.95;100539.86;1738783;82;20997;-72
2021/08/15 04:07:27;;;;;;;22.13;14.93;;;;;;;16.19;68.89;100543.72;1735078;82;21036;-72
2021/08/15 04:09:53;;;;;;;21.68;15.10;;;;;;;16.24;68.88;100536.61;1733621;82;21006;-72
2021/08/15 04:12:20;;;;;;;19.07;14.45;;;;;;;16.32;68.82;100540.69;1728941;82;22245;-72
2021/08/15 04:14:46;;;;;;;20.82;14.70;;;;;;;16.40;68.76;100535.88;1727616;82;20946;-72
2021/08/15 04:17:13;;;;;;;24.95;14.85;;;;;;;16.48;68.69;100537.28;1729334;82;21021;-72
2021/08/15 04:19:40;;;;;;;23.55;14.85;;;;;;;16.55;68.69;100540.51;1732577;82;21085;-72
2021/08/15 04:22:07;;;;;;;18.75;13.88;;;;;;;16.65;68.56;100539.07;1665021;84;21085;-72
2021/08/15 04:24:34;;;;;;;21.48;14.23;;;;;;;16.73;68.45;100542.33;1657713;85;22251;-72
2021/08/15 04:27:02;;;;;;;22.45;14.58;;;;;;;16.82;68.33;100532.05;1728791;82;21417;-72
2021/08/15 04:29:29;;;;;;;21.27;14.20;;;;;;;16.92;68.22;100538.10;1735468;82;20970;-72
2021/08/15 04:31:55;;;;;;;22.10;13.85;;;;;;;17.02;68.13;100537.98;1730019;82;21042;-72
2021/08/15 04:34:21;;;;;;;20.95;13.85;;;;;;;17.09;68.01;100531.86;1699607;84;20967;-72
2021/08/15 04:36:48;;;;;;;21.48;14.35;;;;;;;17.20;67.96;100534.73;1673540;85;21864;-72
2021/08/15 04:39:16;;;;;;;16.40;12.13;;;;;;;17.29;68.05;100534.27;1723360;82;20891;-72
2021/08/15 04:41:43;;;;;;;18.00;12.40;;;;;;;17.37;68.04;100538.28;1728726;82;20969;-72
2021/08/15 04:44:09;;;;;;;18.92;12.63;;;;;;;17.44;67.90;100536.64;1724013;82;21022;-72
2021/08/15 04:46:36;;;;;;;19.05;12.07;;;;;;;17.55;67.84;100530.16;1723296;82;21049;-72
2021/08/15 04:49:04;;;;;;;15.40;12.18;;;;;;;17.65;67.72;100526.34;1723320;82;22470;-72
2021/08/15 04:51:31;;;;;;;15.30;11.90;;;;;;;17.78;67.65;100529.09;1711047;82;21426;-72
2021/08/15 04:53:58;;;;;;;15.25;11.48;;;;;;;17.91;67.58;100526.76;1692109;83;20982;-72
2021/08/15 04:56:24;;;;;;;17.42;12.53;;;;;;;18.05;67.62;100529.27;1692131;83;20989;-71
2021/08/15 04:58:52;;;;;;;18.98;12.65;;;;;;;18.19;67.70;100536.63;1689821;85;21071;-72
2021/08/15 05:01:20;;;;;;;20.27;12.60;;;;;;;18.34;67.72;100531.47;1689801;85;21126;-72
2021/08/15 05:03:50;;;;;;;18.57;12.63;;;;;;;18.47;67.68;100531.78;1691444;83;21078;-72
2021/08/15 05:06:16;;;;;;;19.20;12.93;;;;;;;18.62;67.70;100527.39;1693090;84;21117;-72
2021/08/15 05:08:44;;;;;;;19.75;13.00;;;;;;;18.76;67.55;100526.73;1693785;83;21497;-72
2021/08/15 05:11:11;;;;;;;19.57;13.22;;;;;;;18.90;67.29;100521.67;1694595;83;21472;-72
2021/08/15 05:13:39;;;;;;;19.52;13.43;;;;;;;19.03;67.16;100518.80;1693965;83;21369;-72
2021/08/15 05:16:05;;;;;;;19.57;13.78;;;;;;;19.18;66.97;100530.11;1694146;84;20946;-72
2021/08/15 05:18:32;;;;;;;21.93;13.25;;;;;;;19.30;66.78;100530.91;1654092;83;21073;-72
2021/08/15 05:20:58;;;;;;;22.60;12.65;;;;;;;19.43;66.62;100529.83;1711472;83;21002;-72
2021/08/15 05:23:26;;;;;;;21.27;13.68;;;;;;;19.57;66.61;100524.75;1687364;83;20930;-74
2021/08/15 05:25:53;;;;;;;18.05;12.75;;;;;;;19.70;66.47;100533.90;1691601;83;22464;-70
2021/08/15 05:28:19;;;;;;;19.70;12.35;;;;;;;19.84;66.42;100531.45;1698613;83;20832;-70
2021/08/15 05:30:45;;;;;;;17.77;12.33;;;;;;;19.96;66.29;100530.02;1693701;83;21444;-70
2021/08/15 05:33:13;;;;;;;17.73;12.53;;;;;;;20.10;66.20;100529.26;1685970;84;21089;-69
2021/08/15 05:35:39;;;;;;;17.42;11.90;;;;;;;20.24;66.01;100529.80;1685876;84;21009;-69
2021/08/15 05:38:05;;;;;;;19.07;11.95;;;;;;;20.38;65.69;100532.20;1693342;84;21756;-71
2021/08/15 05:40:32;;;;;;;14.85;11.15;;;;;;;20.51;65.53;100524.39;1693447;83;21093;-71
2021/08/15 05:43:00;;;;;;;17.80;10.98;;;;;;;20.64;65.28;100520.23;1694278;84;20985;-71
2021/08/15 05:45:27;;;;;;;15.05;10.80;;;;;;;20.78;65.07;100523.45;1694195;84;21030;-72
2021/08/15 05:47:53;;;;;;;16.17;10.75;;;;;;;20.91;64.77;100518.26;1695411;83;21072;-75
2021/08/15 05:50:19;;;;;;;16.02;9.70;;;;;;;21.05;64.42;100515.27;1689958;85;22215;-73
2021/08/15 05:52:46;;;;;;;14.30;9.30;;;;;;;21.18;63.87;100513.25;1726863;82;20997;-73
2021/08/15 05:55:12;;;;;;;13.22;8.63;;;;;;;21.29;63.11;100514.14;1734124;82;21028;-74
2021/08/15 05:57:40;;;;;;;14.23;8.80;;;;;;;21.40;62.24;100515.83;1726113;82;21378;-74
2021/08/15 06:00:08;;;;;;;10.32;6.60;;;;;;;21.53;61.79;100517.85;1729722;82;20958;-74
2021/08/15 06:02:41;;;;;;;9.25;6.33;;;;;;;21.65;60.47;100517.67;1730782;82;21846;-71
2021/08/15 06:05:10;;;;;;;8.78;5.80;;;;;;;21.76;58.62;100520.36;1730589;82;21377;-71
2021/08/15 06:07:36;;;;;;;9.53;5.25;;;;;;;21.90;58.12;100522.66;1739057;82;21016;-70
2021/08/15 06:10:06;;;;;;;10.15;5.83;;;;;;;22.01;56.28;100519.48;1720455;82;21605;-70
2021/08/15 06:12:33;;;;;;;6.90;4.42;;;;;;;22.16;55.41;100518.09;1732695;82;21018;-70
2021/08/15 06:15:02;;;;;;;10.55;4.40;;;;;;;22.26;53.88;100520.76;1662109;82;21939;-71
2021/08/15 06:17:29;;;;;;;8.78;4.80;;;;;;;22.38;53.03;100522.91;1732145;82;20953;-70
2021/08/15 06:19:58;;;;;;;8.83;4.67;;;;;;;22.50;53.49;100526.24;1739141;82;21412;-69
2021/08/15 06:22:26;;;;;;;8.58;5.58;;;;;;;22.60;51.95;100516.48;1739039;81;20993;-70
2021/08/15 06:24:53;;;;;;;9.00;6.17;;;;;;;22.69;52.49;100514.47;1737903;82;20997;-70
2021/08/15 06:27:20;;;;;;;10.08;6.60;;;;;;;22.79;52.51;100512.25;1736370;82;22236;-70
2021/08/15 06:29:47;;;;;;;10.85;5.97;;;;;;;22.90;52.45;100511.72;1701118;84;20940;-71
2021/08/15 06:32:14;;;;;;;13.78;6.55;;;;;;;22.97;51.36;100510.39;1739774;82;20969;-70
2021/08/15 06:34:40;;;;;;;8.65;5.83;;;;;;;23.09;51.50;100515.03;1733021;82;21051;-71
2021/08/15 06:37:08;;;;;;;10.08;4.83;;;;;;;23.21;50.69;100513.11;1737353;82;21006;-71
2021/08/15 06:39:37;;;;;;;5.87;4.17;;;;;;;23.30;49.37;100512.73;1693003;84;21867;-70
2021/08/15 06:42:04;;;;;;;9.68;4.80;;;;;;;23.41;47.63;100514.84;1739317;82;20993;-71
2021/08/15 06:44:30;;;;;;;9.13;4.53;;;;;;;23.51;47.17;100517.67;1739084;82;21081;-72
2021/08/15 06:46:58;;;;;;;10.05;4.55;;;;;;;23.57;46.61;100514.18;1697956;83;20998;-71
2021/08/15 06:49:25;;;;;;;8.80;4.72;;;;;;;23.64;46.40;100520.43;1721248;82;21033;-72
2021/08/15 06:51:51;;;;;;;7.40;4.70;;;;;;;23.70;45.92;100517.76;1730529;81;22152;-70
2021/08/15 06:54:17;;;;;;;7.70;4.22;;;;;;;23.79;45.86;100514.36;1733349;82;21004;-70
2021/08/15 06:56:45;;;;;;;8.53;4.62;;;;;;;23.87;45.81;100516.87;1734549;82;21028;-71
2021/08/15 06:59:13;;;;;;;6.37;4.62;;;;;;;23.94;45.48;100512.32;1738208;82;21056;-70
2021/08/15 07:01:40;;;;;;;6.45;4.12;;;;;;;24.02;45.39;100507.73;1738273;82;21060;-71
2021/08/15 07:04:07;;;;;;;5.62;3.67;;;;;;;24.12;45.42;100515.73;1739390;82;21733;-71
2021/08/15 07:06:33;;;;;;;6.55;3.98;;;;;;;24.23;44.30;100514.31;1739183;82;21075;-71
2021/08/15 07:09:00;;;;;;;8.13;4.17;;;;;;;24.29;43.32;100516.16;1738461;82;21387;-72
2021/08/15 07:11:26;;;;;;;7.90;3.70;;;;;;;24.35;43.03;100512.67;1724279;82;21002;-72
2021/08/15 07:13:53;;;;;;;6.40;4.15;;;;;;;24.43;43.30;100519.22;1717263;82;21417;-73
2021/08/15 07:16:19;;;;;;;7.40;4.00;;;;;;;24.51;43.10;100513.61;1727752;82;22269;-72
2021/08/15 07:18:46;;;;;;;6.75;3.85;;;;;;;24.61;43.05;100519.07;1734150;82;21001;-72
2021/08/15 07:21:12;;;;;;;7.15;3.98;;;;;;;24.70;42.87;100513.23;1734264;82;21044;-72
2021/08/15 07:23:39;;;;;;;4.90;3.80;;;;;;;24.79;42.47;100510.63;1708397;82;20978;-73
2021/08/15 07:26:05;;;;;;;7.10;3.85;;;;;;;24.87;42.61;100514.97;1732402;82;21017;-72
2021/08/15 07:28:32;;;;;;;9.15;4.00;;;;;;;24.97;42.25;100505.07;1727262;82;21849;-71
2021/08/15 07:30:59;;;;;;;5.72;3.80;;;;;;;25.05;42.30;100504.87;1728318;82;20962;-72
2021/08/15 07:33:25;;;;;;;5.17;3.50;;;;;;;25.15;42.59;100508.48;1727353;82;20993;-71
2021/08/15 07:35:52;;;;;;;6.37;3.52;;;;;;;25.27;42.13;100502.70;1727870;82;21085;-71
2021/08/15 07:38:18;;;;;;;9.70;3.90;;;;;;;25.39;41.91;100499.13;1724538;82;21009;-72
2021/08/15 07:40:45;;;;;;;8.25;3.83;;;;;;;25.51;41.27;100499.80;1734675;82;21687;-72
2021/08/15 07:43:11;;;;;;;6.12;4.10;;;;;;;25.53;41.05;100490.94;1724113;82;21013;-71
2021/08/15 07:45:40;;;;;;;9.65;3.80;;;;;;;25.59;42.21;100491.43;1715665;83;20962;-70
2021/08/15 07:48:07;;;;;;;5.42;4.03;;;;;;;25.72;42.63;100492.72;1682737;85;21028;-69
2021/08/15 07:50:38;;;;;;;9.60;3.60;;;;;;;25.83;42.37;100487.13;1740212;80;21017;-71
2021/08/15 07:53:24;;;;;;;6.65;4.15;;;;;;;25.94;41.61;100480.48;1739602;82;22643;-71
2021/08/15 07:55:53;;;;;;;7.05;3.75;;;;;;;26.05;41.41;100487.58;1728784;82;21118;-72
2021/08/15 07:58:19;;;;;;;5.70;3.98;;;;;;;26.12;41.24;100489.72;1735961;82;21020;-73
2021/08/15 08:00:46;;;;;;;7.42;4.17;;;;;;;26.18;39.50;100480.20;1737197;82;21054;-74
2021/08/15 08:03:13;;;;;;;8.53;4.00;;;;;;;26.21;39.08;100480.27;1737344;82;21044;-73
2021/08/15 08:05:41;;;;;;;5.47;3.98;;;;;;;26.25;39.13;100478.27;1738245;82;22246;-73
2021/08/15 08:08:08;;;;;;;7.65;4.10;;;;;;;26.30;39.08;100476.77;1728961;82;20929;-72
2021/08/15 08:10:34;;;;;;;7.10;3.77;;;;;;;26.32;39.12;100471.95;1739465;82;20973;-72
2021/08/15 08:13:02;;;;;;;8.08;4.60;;;;;;;26.37;39.76;100470.27;1735970;82;21112;-72
2021/08/15 08:15:31;;;;;;;7.53;4.58;;;;;;;26.49;40.09;100467.65;1736790;82;20946;-78
2021/08/15 08:17:59;;;;;;;8.10;4.45;;;;;;;26.60;39.02;100463.37;1736717;82;21690;-75
2021/08/15 08:20:26;;;;;;;6.15;4.65;;;;;;;26.63;39.15;100459.67;1731427;83;21064;-75
2021/08/15 08:22:53;;;;;;;6.47;4.00;;;;;;;26.72;39.55;100459.67;1732097;82;21037;-77
2021/08/15 08:25:19;;;;;;;6.97;4.10;;;;;;;26.81;39.05;100458.85;1739342;82;21047;-76
2021/08/15 08:27:45;;;;;;;10.20;3.90;;;;;;;26.87;38.45;100458.48;1737896;80;21014;-74
2021/08/15 08:30:12;;;;;;;8.90;4.25;;;;;;;26.93;38.70;100453.53;1735550;81;21703;-75
2021/08/15 08:32:39;;;;;;;8.25;5.90;;;;;;;27.01;39.17;100456.73;1739713;82;21345;-74
2021/08/15 08:35:07;;;;;;;14.47;6.45;;;;;;;27.16;40.06;100452.84;1738475;82;21396;-74
2021/08/15 08:37:33;;;;;;;10.45;6.20;;;;;;;27.30;41.18;100452.42;1734394;82;21448;-72
2021/08/15 08:40:00;;;;;;;9.23;6.10;;;;;;;27.39;40.82;100457.82;1735128;82;20954;-74
2021/08/15 08:42:28;;;;;;;10.63;5.80;;;;;;;27.45;40.90;100455.27;1737220;82;22913;-73
2021/08/15 08:45:03;;;;;;;9.35;5.10;;;;;;;27.51;41.32;100448.92;1744002;82;21475;-76
2021/08/15 08:47:33;;;;;;;6.53;5.25;;;;;;;27.59;41.15;100448.03;1743351;82;21075;-73
2021/08/15 08:50:00;;;;;;;11.78;5.50;;;;;;;27.66;40.81;100446.09;1734642;82;21392;-73
2021/08/15 08:52:29;;;;;;;9.45;5.85;;;;;;;27.75;40.34;100440.33;1714009;82;21066;-73
2021/08/15 08:54:58;;;;;;;6.55;5.12;;;;;;;27.76;40.70;100445.52;1690030;83;22512;-74
2021/08/15 08:57:25;;;;;;;8.30;5.50;;;;;;;27.77;41.25;100439.56;1677844;85;21010;-73
2021/08/15 08:59:52;;;;;;;10.23;6.20;;;;;;;27.87;40.43;100433.03;1689989;83;21434;-74
2021/08/15 09:02:18;;;;;;;13.13;6.65;;;;;;;27.97;41.03;100437.88;1690009;84;21491;-73
2021/08/15 09:04:45;;;;;;;10.23;5.70;;;;;;;28.07;40.30;100433.52;1689840;83;21023;-74
2021/08/15 09:07:15;;;;;;;8.55;5.90;;;;;;;28.09;40.50;100430.59;1668750;84;22228;-74
2021/08/15 09:09:56;;;;;;;9.25;5.85;;;;;;;28.15;39.68;100422.31;1644390;86;21105;-74
2021/08/15 09:12:39;;;;;;;7.78;5.65;;;;;;;28.17;39.29;100419.35;1644516;86;21131;-74
2021/08/15 09:15:13;;;;;;;;;;;;;;;28.25;39.88;100414.92;1646678;87;21057;-73
2021/08/15 09:17:40;;;;;;;8.75;5.47;;;;;;;28.37;39.70;100413.59;1644736;86;20151;-73
2021/08/15 09:20:08;;;;;;;9.58;5.45;;;;;;;28.48;39.49;100409.52;1644897;87;21693;-73
2021/08/15 09:22:37;;;;;;;7.58;5.42;;;;;;;28.58;39.07;100406.20;1625831;84;21050;-75
2021/08/15 09:25:11;;;;;;;9.98;5.30;;;;;;;28.75;39.31;100409.80;1702982;83;20998;-74
2021/08/15 09:27:54;;;;;;;10.35;5.30;;;;;;;28.90;39.18;100401.70;1702708;83;21010;-73
2021/08/15 09:30:31;;;;;;;7.15;5.37;;;;;;;29.02;37.95;100401.12;1701992;83;20967;-73
2021/08/15 09:33:09;;;;;;;10.43;5.40;;;;;;;29.07;38.34;100403.41;1702129;82;22515;-73
2021/08/15 09:35:40;;;;;;;8.35;5.70;;;;;;;29.23;38.09;100402.33;1682325;83;20977;-73
2021/08/15 09:38:12;;;;;;;8.85;5.53;;;;;;;29.32;36.91;100403.59;1678009;84;21479;-73
2021/08/15 09:40:48;;;;;;;8.90;5.08;;;;;;;29.22;37.53;100408.30;1673874;84;20987;-74
2021/08/15 09:43:23;;;;;;;7.30;4.70;;;;;;;29.29;37.73;100405.45;1702820;84;21481;-73
2021/08/15 09:45:59;;;;;;;8.35;4.92;;;;;;;29.40;37.22;100405.09;1702460;83;21762;-74
2021/08/15 09:48:34;;;;;;;6.33;5.10;;;;;;;29.55;37.82;100401.32;1703035;83;21062;-75
2021/08/15 09:51:07;;;;;;;7.72;5.17;;;;;;;29.63;36.82;100409.91;1703427;82;20962;-74
2021/08/15 09:53:38;;;;;;;7.28;5.05;;;;;;;29.69;36.83;100404.00;1702389;82;21015;-74
2021/08/15 09:56:05;;;;;;;5.55;4.50;;;;;;;29.81;36.23;100404.73;1702756;83;20998;-74
2021/08/15 09:58:31;;;;;;;10.18;5.10;;;;;;;29.92;35.61;100396.22;1701345;82;22187;-74
2021/08/15 10:01:00;;;;;;;11.70;4.60;;;;;;;29.97;36.35;100407.71;1702398;84;20991;-73
2021/08/15 10:03:26;;;;;;;5.05;4.30;;;;;;;30.01;34.97;100396.05;1702141;84;21014;-73
2021/08/15 10:05:54;;;;;;;6.87;4.80;;;;;;;30.13;36.12;100394.65;1650377;85;21012;-73
2021/08/15 10:08:22;;;;;;;8.08;4.40;;;;;;;30.33;34.85;100393.58;1677902;85;20969;-74
2021/08/15 10:10:50;;;;;;;6.33;4.70;;;;;;;30.36;34.74;100393.06;1677845;84;21016;-73
2021/08/15 10:13:17;;;;;;;7.22;4.70;;;;;;;30.43;34.33;100384.71;1678303;84;21000;-73
2021/08/15 10:16:01;;;;;;;7.53;4.87;;;;;;;30.43;33.74;100388.26;1699813;82;21010;-73
2021/08/15 10:18:29;;;;;;;6.97;3.85;;;;;;;30.39;33.87;100387.09;1701979;84;21343;-72
2021/08/15 10:21:09;;;;;;;5.45;4.00;;;;;;;30.41;32.95;100384.14;1703164;82;21063;-73
2021/08/15 10:23:41;;;;;;;6.70;4.15;;;;;;;30.48;33.22;100379.31;1700633;84;21839;-73
2021/08/15 10:26:39;;;;;;;7.67;5.03;;;;;;;30.67;33.59;100378.48;1702286;83;20940;-72
2021/08/15 10:29:33;;;;;;;7.72;3.85;;;;;;;31.00;33.52;100370.70;1703568;83;21441;-72
2021/08/15 10:32:08;;;;;;;;;;;;;;;31.00;33.52;100370.70;1703582;83;21053;-72
2021/08/15 10:34:55;;;;;;;9.20;4.05;;;;;;;31.12;31.99;100364.55;1703258;83;20463;-73
2021/08/15 10:37:28;;;;;;;6.72;3.90;;;;;;;31.12;31.99;100364.55;1680710;84;23762;-77
2021/08/15 10:40:02;;;;;;;4.22;3.83;;;;;;;31.18;31.72;100371.71;1675467;83;21072;-78
2021/08/15 10:42:46;;;;;;;7.67;3.70;;;;;;;31.23;31.79;100366.31;1676794;85;21072;-74
2021/08/15 10:45:25;;;;;;;7.45;3.83;;;;;;;31.37;32.05;100364.55;1676266;85;21047;-74
2021/08/15 10:48:12;;;;;;;5.80;3.72;;;;;;;31.51;31.42;100358.93;1678855;83;21496;-77
2021/08/15 10:50:54;;;;;;;8.33;4.05;;;;;;;31.64;30.47;100357.11;1678768;83;22472;-75
2021/08/15 10:53:32;;;;;;;6.97;4.12;;;;;;;31.52;31.10;100355.11;1703356;82;20997;-73
2021/08/15 10:56:03;;;;;;;6.45;3.77;;;;;;;31.60;30.77;100351.36;1716652;82;21084;-74
2021/08/15 10:58:42;;;;;;;8.50;4.28;;;;;;;31.73;30.62;100351.99;1691495;83;21061;-74
2021/08/15 11:01:14;;;;;;;6.67;4.05;;;;;;;31.90;31.11;100351.33;1733994;82;20972;-74
2021/08/15 11:03:54;;;;;;;6.22;3.77;;;;;;;32.02;30.87;100349.77;1737341;82;21820;-70
2021/08/15 11:06:36;;;;;;;6.70;4.35;;;;;;;32.19;31.48;100342.22;1733311;82;21076;-70
2021/08/15 11:09:07;;;;;;;5.78;4.15;;;;;;;32.39;30.12;100340.97;1693294;83;21084;-71
2021/08/15 11:11:37;;;;;;;5.00;3.67;;;;;;;32.45;29.68;100337.18;1729168;82;21085;-72
2021/08/15 11:14:25;;;;;;;5.03;4.28;;;;;;;32.50;30.31;100337.73;1722288;83;21476;-72
2021/08/15 11:16:54;;;;;;;8.83;4.55;;;;;;;32.70;30.25;100339.16;1722089;82;22387;-72
2021/08/15 11:19:25;;;;;;;8.80;4.67;;;;;;;32.92;30.56;100328.61;1723178;82;21041;-72
2021/08/15 11:22:20;;;;;;;9.93;5.00;;;;;;;33.08;30.33;100328.88;1723853;82;21109;-72
2021/08/15 11:24:50;;;;;;;6.00;4.80;;;;;;;33.22;30.58;100326.45;1711513;82;20998;-72
2021/08/15 11:27:34;;;;;;;6.90;4.53;;;;;;;33.38;30.36;100321.81;1732425;82;21032;-72